Time;durP1;ratioP1;P1;durP2;ratioP2;P2;SDS_P1;SDS_P2;PMS_P1;PMS_P2;Temp;Humidity;BMP_temperature;BMP_pressure;BME280_temperature;BME280_humidity;BME280_pressure;Samples;Min_cycle;Max_cycle;Signal;HPM_P1;HPM_P2
2022/07/22 00:00:40;;;;;;;6.57;5.87;;;;;;;20.23;79.99;98456.78;5055574;28;20303;-70
2022/07/22 00:03:07;;;;;;;5.50;5.00;;;;;;;20.22;80.05;98459.75;5055656;28;20201;-70
2022/07/22 00:05:34;;;;;;;5.93;5.33;;;;;;;20.23;79.35;98464.06;5055397;28;20233;-70
2022/07/22 00:08:00;;;;;;;6.20;5.70;;;;;;;20.21;80.56;98466.22;5055815;28;20223;-70
2022/07/22 00:10:27;;;;;;;6.67;5.70;;;;;;;20.25;78.77;98456.50;5055134;28;20311;-70
2022/07/22 00:12:53;;;;;;;10.33;5.67;;;;;;;20.26;78.92;98460.81;5055741;28;20205;-70
2022/07/22 00:15:20;;;;;;;5.53;5.03;;;;;;;20.14;80.87;98465.69;5056207;28;20292;-70
2022/07/22 00:17:46;;;;;;;5.80;5.30;;;;;;;20.09;80.90;98457.59;5055272;28;20580;-70
2022/07/22 00:20:12;;;;;;;6.43;5.53;;;;;;;20.04;81.37;98461.06;5055265;28;20225;-70
2022/07/22 00:22:39;;;;;;;6.07;5.13;;;;;;;19.95;80.39;98464.56;5055255;28;20205;-70
2022/07/22 00:25:06;;;;;;;7.07;5.67;;;;;;;19.98;80.83;98458.63;5055160;28;20209;-70
2022/07/22 00:27:32;;;;;;;7.27;5.17;;;;;;;20.03;79.70;98461.34;5055192;28;20216;-70
2022/07/22 00:29:58;;;;;;;5.90;5.10;;;;;;;19.88;81.04;98462.13;5054754;28;20226;-70
2022/07/22 00:32:26;;;;;;;5.70;5.20;;;;;;;19.95;79.26;98461.88;5055038;28;20207;-70
2022/07/22 00:34:52;;;;;;;6.03;5.20;;;;;;;19.87;79.04;98455.13;5055094;28;20295;-70
2022/07/22 00:37:18;;;;;;;6.10;5.50;;;;;;;19.96;78.62;98456.22;5054970;28;20197;-70
2022/07/22 00:39:45;;;;;;;5.83;5.33;;;;;;;20.07;76.36;98448.94;5054874;28;20221;-70
2022/07/22 00:42:11;;;;;;;5.80;5.23;;;;;;;20.04;78.07;98454.84;5054870;28;20212;-70
2022/07/22 00:44:38;;;;;;;6.27;5.37;;;;;;;20.13;76.36;98451.38;5054683;28;20687;-70
2022/07/22 00:47:04;;;;;;;6.33;5.33;;;;;;;20.14;76.95;98449.47;5055481;28;20239;-69
2022/07/22 00:49:30;;;;;;;6.17;5.30;;;;;;;19.95;78.02;98448.38;5054375;28;20233;-70
2022/07/22 00:51:57;;;;;;;6.13;5.63;;;;;;;19.92;78.21;98447.03;5054708;28;20300;-70
2022/07/22 00:54:24;;;;;;;6.20;5.60;;;;;;;20.00;76.91;98441.09;5054665;28;20212;-70
2022/07/22 00:56:50;;;;;;;7.83;5.53;;;;;;;19.94;78.16;98442.16;5054606;28;20208;-70
2022/07/22 00:59:17;;;;;;;6.50;5.87;;;;;;;20.04;76.48;98441.34;5054352;28;20233;-70
2022/07/22 01:01:43;;;;;;;5.60;5.10;;;;;;;20.09;76.81;98439.50;5054210;28;20751;-70
2022/07/22 01:04:10;;;;;;;6.53;5.43;;;;;;;20.01;77.65;98433.78;5054506;28;20292;-70
2022/07/22 01:06:36;;;;;;;6.90;5.73;;;;;;;20.05;76.48;98438.41;5054333;28;20225;-70
2022/07/22 01:09:04;;;;;;;5.87;5.27;;;;;;;20.01;76.20;98425.69;5054230;28;20316;-70
2022/07/22 01:11:30;;;;;;;6.00;5.40;;;;;;;20.10;74.77;98435.72;5054072;28;20704;-70
2022/07/22 01:13:57;;;;;;;5.50;5.10;;;;;;;20.16;74.92;98433.84;5053943;28;20300;-70
2022/07/22 01:16:24;;;;;;;6.23;5.73;;;;;;;20.25;74.11;98426.81;5054017;28;20208;-70
2022/07/22 01:18:51;;;;;;;7.10;5.80;;;;;;;20.24;74.20;98441.38;5054191;28;20236;-70
2022/07/22 01:21:18;;;;;;;6.13;5.63;;;;;;;20.30;73.44;98433.00;5053802;28;20567;-70
2022/07/22 01:23:45;;;;;;;6.93;6.17;;;;;;;20.26;74.32;98431.91;5054128;28;20575;-70
2022/07/22 01:26:12;;;;;;;5.80;5.30;;;;;;;20.35;72.59;98433.00;5054056;28;20227;-70
2022/07/22 01:28:38;;;;;;;5.90;5.47;;;;;;;20.34;73.78;98435.97;5053655;28;20730;-70
2022/07/22 01:31:05;;;;;;;6.30;5.17;;;;;;;20.20;74.28;98427.59;5054055;28;20201;-70
2022/07/22 01:33:32;;;;;;;5.40;4.90;;;;;;;20.09;75.43;98434.09;5054156;28;20297;-70
2022/07/22 01:35:58;;;;;;;6.17;5.23;;;;;;;20.00;76.31;98433.00;5053953;28;20630;-70
2022/07/22 01:38:25;;;;;;;6.33;5.50;;;;;;;19.99;75.46;98436.75;5053872;28;20315;-70
2022/07/22 01:40:51;;;;;;;6.37;5.87;;;;;;;19.94;76.17;98444.06;5053551;28;20201;-70
2022/07/22 01:43:20;;;;;;;6.17;5.57;;;;;;;19.92;76.05;98441.63;5053863;28;20206;-70
2022/07/22 01:45:48;;;;;;;6.20;5.60;;;;;;;19.94;76.17;98444.06;5053407;28;20227;-70
2022/07/22 01:48:15;;;;;;;6.80;6.00;;;;;;;19.92;75.27;98444.31;5053390;28;20668;-70
2022/07/22 01:50:42;;;;;;;5.90;5.40;;;;;;;19.81;78.28;98442.69;5053714;28;20201;-70
2022/07/22 01:53:09;;;;;;;7.13;6.10;;;;;;;19.67;78.38;98447.81;5053411;28;20201;-70
2022/07/22 01:55:36;;;;;;;6.37;5.63;;;;;;;19.64;79.42;98444.84;5053591;28;20209;-70
2022/07/22 01:58:04;;;;;;;6.27;5.67;;;;;;;19.63;78.82;98441.31;5053314;28;20737;-70
2022/07/22 02:00:32;;;;;;;6.80;5.97;;;;;;;19.64;78.65;98439.44;5053197;28;20255;-70
2022/07/22 02:02:58;;;;;;;7.30;5.67;;;;;;;19.41;80.40;98438.03;5053269;28;20664;-70
2022/07/22 02:05:25;;;;;;;5.80;5.37;;;;;;;19.44;80.68;98439.38;5053479;28;20296;-70
2022/07/22 02:07:51;;;;;;;7.60;5.97;;;;;;;19.36;81.89;98439.91;5053054;28;20316;-70
2022/07/22 02:10:18;;;;;;;6.60;6.00;;;;;;;19.30;81.45;98452.56;5053018;28;20320;-70
2022/07/22 02:12:44;;;;;;;6.53;6.03;;;;;;;19.30;82.10;98444.47;5053460;28;20231;-70
2022/07/22 02:15:11;;;;;;;6.67;5.83;;;;;;;19.24;82.11;98442.84;5052970;28;20571;-70
2022/07/22 02:17:38;;;;;;;6.70;6.10;;;;;;;19.39;81.45;98440.19;5053378;28;20227;-70
2022/07/22 02:20:05;;;;;;;6.50;5.80;;;;;;;19.30;82.66;98438.25;5052951;28;20228;-70
2022/07/22 02:22:31;;;;;;;6.30;5.50;;;;;;;19.32;81.42;98444.22;5053282;28;20205;-70
2022/07/22 02:24:57;;;;;;;7.37;6.00;;;;;;;19.45;81.00;98436.44;5052885;28;20207;-69
2022/07/22 02:27:24;;;;;;;8.97;6.23;;;;;;;19.33;81.32;98432.34;5052835;28;20591;-70
2022/07/22 02:29:50;;;;;;;8.27;5.80;;;;;;;19.26;82.15;98434.47;5053117;28;20232;-70
2022/07/22 02:32:17;;;;;;;8.37;6.40;;;;;;;19.21;82.96;98440.66;5053251;28;20300;-70
2022/07/22 02:34:43;;;;;;;7.20;6.50;;;;;;;19.20;82.58;98430.94;5053184;28;20216;-70
2022/07/22 02:37:09;;;;;;;9.17;6.70;;;;;;;19.30;81.46;98433.69;5052857;28;20197;-70
2022/07/22 02:39:36;;;;;;;7.23;6.70;;;;;;;19.25;82.24;98431.00;5053137;28;20231;-70
2022/07/22 02:42:02;;;;;;;7.70;6.90;;;;;;;19.17;82.74;98426.06;5052811;28;20680;-70
2022/07/22 02:44:29;;;;;;;8.63;6.90;;;;;;;19.11;82.99;98429.00;5053070;28;20296;-70
2022/07/22 02:46:55;;;;;;;6.93;6.23;;;;;;;19.09;83.56;98431.19;5053010;28;20308;-70
2022/07/22 02:49:22;;;;;;;8.13;7.30;;;;;;;19.02;83.85;98426.03;5052661;28;20734;-70
2022/07/22 02:51:48;;;;;;;8.10;7.33;;;;;;;19.14;82.70;98433.88;5052959;28;20304;-70
2022/07/22 02:54:14;;;;;;;8.43;7.07;;;;;;;19.03;84.10;98422.25;5053012;28;20204;-70
2022/07/22 02:56:41;;;;;;;7.80;7.00;;;;;;;19.01;83.93;98421.69;5054489;28;20205;-70
2022/07/22 02:59:07;;;;;;;9.03;7.30;;;;;;;19.05;83.96;98424.69;5056479;28;20607;-70
2022/07/22 03:01:33;;;;;;;8.17;7.40;;;;;;;19.10;83.21;98422.81;5056381;28;20201;-70
2022/07/22 03:04:00;;;;;;;7.97;7.27;;;;;;;19.06;83.68;98427.13;5057195;28;20649;-70
2022/07/22 03:06:26;;;;;;;7.80;7.10;;;;;;;18.99;84.06;98429.25;5056544;28;20233;-70
2022/07/22 03:08:53;;;;;;;9.00;7.37;;;;;;;19.03;84.45;98430.34;5056541;28;20221;-69
2022/07/22 03:11:19;;;;;;;8.03;7.33;;;;;;;18.94;84.39;98423.84;5056662;28;20551;-70
2022/07/22 03:13:46;;;;;;;8.70;7.80;;;;;;;18.96;84.14;98432.44;5056181;28;20209;-70
2022/07/22 03:16:12;;;;;;;8.63;7.73;;;;;;;18.92;84.24;98425.16;5056431;28;20203;-70
2022/07/22 03:18:39;;;;;;;9.67;8.77;;;;;;;18.89;84.37;98434.59;5056065;28;20738;-70
2022/07/22 03:21:05;;;;;;;9.17;8.27;;;;;;;18.88;85.19;98435.66;5056117;28;20212;-70
2022/07/22 03:23:32;;;;;;;8.27;7.47;;;;;;;18.80;86.48;98436.16;5056170;28;20300;-70
2022/07/22 03:25:58;;;;;;;9.80;8.30;;;;;;;18.79;85.72;98434.56;5056149;28;20292;-70
2022/07/22 03:28:25;;;;;;;9.73;8.37;;;;;;;18.72;86.46;98433.97;5055631;28;20221;-70
2022/07/22 03:30:51;;;;;;;8.83;8.03;;;;;;;18.76;86.24;98437.75;5055624;28;20263;-70
2022/07/22 03:33:18;;;;;;;8.80;7.97;;;;;;;18.68;87.82;98432.84;5055821;28;20228;-69
2022/07/22 03:35:44;;;;;;;10.00;7.70;;;;;;;18.72;87.15;98441.22;5055405;28;20212;-70
2022/07/22 03:38:11;;;;;;;9.77;8.87;;;;;;;18.73;87.24;98442.88;5055659;28;20288;-70
2022/07/22 03:40:37;;;;;;;10.10;8.10;;;;;;;18.69;87.72;98439.06;5055376;28;20694;-70
2022/07/22 03:43:03;;;;;;;9.30;8.40;;;;;;;18.62;88.89;98439.28;5055415;28;20209;-69
2022/07/22 03:45:30;;;;;;;8.73;8.00;;;;;;;18.63;87.58;98432.84;5055467;28;20205;-69
2022/07/22 03:47:57;;;;;;;10.97;8.80;;;;;;;18.57;89.49;98439.28;5055338;28;20268;-69
2022/07/22 03:50:24;;;;;;;9.77;8.70;;;;;;;18.72;88.11;98436.66;5055348;28;20233;-70
2022/07/22 03:52:51;;;;;;;8.77;7.70;;;;;;;18.68;88.42;98437.44;5055260;28;20517;-70
2022/07/22 03:55:17;;;;;;;9.07;8.27;;;;;;;18.74;88.04;98439.09;5055241;28;20205;-69
2022/07/22 03:57:44;;;;;;;9.67;8.73;;;;;;;18.75;87.51;98440.72;5055283;28;20664;-70
2022/07/22 04:00:10;;;;;;;9.47;8.60;;;;;;;18.70;88.13;98441.50;5055052;28;20248;-70
2022/07/22 04:02:37;;;;;;;8.77;8.07;;;;;;;18.60;88.39;98438.72;5055511;28;20212;-70
2022/07/22 04:05:04;;;;;;;9.50;8.60;;;;;;;18.52;89.39;98439.25;5055431;28;20215;-70
2022/07/22 04:07:30;;;;;;;10.50;8.50;;;;;;;18.48;90.16;98440.84;5054448;28;20312;-69
2022/07/22 04:10:04;;;;;;;8.90;8.10;;;;;;;18.53;90.41;98440.88;5055104;28;20221;-70
2022/07/22 04:12:36;;;;;;;9.73;8.83;;;;;;;18.59;88.96;98437.13;5055105;28;20276;-70
2022/07/22 04:15:05;;;;;;;10.10;8.67;;;;;;;18.52;89.87;98436.56;5055267;28;20280;-70
2022/07/22 04:17:31;;;;;;;9.70;8.80;;;;;;;18.56;89.98;98442.22;5055060;28;20292;-70
2022/07/22 04:19:59;;;;;;;10.13;9.17;;;;;;;18.52;90.35;98441.94;5055019;28;20340;-70
2022/07/22 04:22:25;;;;;;;9.63;8.73;;;;;;;18.64;89.92;98433.66;5054775;28;20214;-69
2022/07/22 04:24:52;;;;;;;10.27;9.07;;;;;;;18.58;89.12;98437.38;5054536;28;20207;-70
2022/07/22 04:27:18;;;;;;;9.70;8.53;;;;;;;18.60;90.10;98436.03;5054322;28;20229;-70
2022/07/22 04:29:44;;;;;;;8.73;7.90;;;;;;;18.63;90.23;98435.53;5054666;28;20232;-70
2022/07/22 04:32:11;;;;;;;9.17;8.27;;;;;;;18.61;89.99;98437.69;5054329;28;20209;-70
2022/07/22 04:34:37;;;;;;;9.73;8.73;;;;;;;18.72;89.82;98430.44;5054314;28;20232;-69
2022/07/22 04:37:04;;;;;;;9.93;9.07;;;;;;;18.78;87.96;98438.28;5054470;28;20205;-70
2022/07/22 04:39:30;;;;;;;9.80;8.90;;;;;;;18.67;88.74;98431.25;5054363;28;20225;-70
2022/07/22 04:41:57;;;;;;;10.23;9.03;;;;;;;18.71;88.90;98440.44;5054811;28;20288;-69
2022/07/22 04:44:23;;;;;;;9.47;8.37;;;;;;;18.72;89.70;98428.56;5054498;28;20372;-70
2022/07/22 04:46:50;;;;;;;9.47;8.57;;;;;;;18.75;89.79;98424.53;5054123;28;20308;-70
2022/07/22 04:49:16;;;;;;;10.20;9.20;;;;;;;18.99;88.43;98426.53;5053943;28;20231;-70
2022/07/22 04:51:42;;;;;;;10.37;9.30;;;;;;;19.04;86.44;98421.16;5053991;28;20213;-69
2022/07/22 04:54:09;;;;;;;10.70;9.80;;;;;;;18.97;87.58;98434.09;5054130;28;20288;-70
2022/07/22 04:56:35;;;;;;;10.33;9.27;;;;;;;19.11;86.14;98424.44;5053787;28;20292;-70
2022/07/22 04:59:02;;;;;;;8.97;8.27;;;;;;;18.97;88.18;98433.28;5053600;28;20229;-70
2022/07/22 05:01:28;;;;;;;11.40;10.03;;;;;;;19.08;86.82;98424.13;5054011;28;20292;-70
2022/07/22 05:03:54;;;;;;;9.73;8.80;;;;;;;19.03;87.15;98424.94;5053894;28;20288;-70
2022/07/22 05:06:21;;;;;;;10.57;9.40;;;;;;;19.06;87.77;98427.13;5053770;28;20212;-70
2022/07/22 05:08:47;;;;;;;10.10;9.10;;;;;;;19.55;85.93;98425.66;5053683;28;20316;-70
2022/07/22 05:11:14;;;;;;;9.73;8.80;;;;;;;20.05;83.55;98424.06;5054303;28;20209;-69
2022/07/22 05:13:40;;;;;;;9.87;8.97;;;;;;;20.58;79.46;98418.91;5053530;28;20202;-70
2022/07/22 05:16:08;;;;;;;9.43;8.43;;;;;;;21.14;75.98;98427.66;5053481;28;20292;-70
2022/07/22 05:18:34;;;;;;;10.00;9.10;;;;;;;21.40;74.29;98426.44;5052897;28;20248;-70
2022/07/22 05:21:01;;;;;;;10.33;9.23;;;;;;;21.95;71.38;98429.63;5053004;28;20213;-70
2022/07/22 05:23:27;;;;;;;10.00;8.83;;;;;;;21.97;69.68;98424.72;5053499;28;20205;-69
2022/07/22 05:25:54;;;;;;;10.07;9.27;;;;;;;21.45;71.55;98429.13;5053056;28;20213;-70
2022/07/22 05:28:20;;;;;;;9.93;9.10;;;;;;;21.02;73.41;98419.09;5052770;28;20652;-70
2022/07/22 05:30:46;;;;;;;9.63;8.73;;;;;;;20.20;78.81;98424.09;5053219;28;20205;-69
2022/07/22 05:33:13;;;;;;;9.63;8.77;;;;;;;20.41;77.93;98413.00;5053103;28;20379;-70
2022/07/22 05:35:39;;;;;;;9.43;8.53;;;;;;;20.41;77.96;98420.28;5053490;28;20296;-70
2022/07/22 05:38:06;;;;;;;9.83;8.90;;;;;;;20.04;80.36;98417.06;5053103;28;20292;-69
2022/07/22 05:40:33;;;;;;;9.60;8.73;;;;;;;20.02;81.69;98424.63;5053427;28;20232;-69
2022/07/22 05:42:59;;;;;;;10.93;9.83;;;;;;;20.03;81.47;98428.94;5053270;28;20209;-70
2022/07/22 05:45:26;;;;;;;12.80;11.33;;;;;;;19.96;80.49;98431.09;5053046;28;20201;-70
2022/07/22 05:47:52;;;;;;;10.90;9.40;;;;;;;19.93;82.85;98424.34;5052830;28;20225;-69
2022/07/22 05:50:19;;;;;;;10.87;9.87;;;;;;;20.36;78.95;98426.53;5053128;28;20229;-70
2022/07/22 05:52:45;;;;;;;10.20;9.27;;;;;;;20.26;79.52;98423.81;5053444;28;20292;-70
2022/07/22 05:55:11;;;;;;;9.37;8.67;;;;;;;20.33;81.47;98423.53;5052810;28;20220;-69
2022/07/22 05:57:38;;;;;;;9.20;8.37;;;;;;;20.53;79.18;98423.53;5052755;28;20207;-69
2022/07/22 06:00:05;;;;;;;9.87;8.93;;;;;;;20.64;77.29;98425.09;5052542;28;20323;-70
2022/07/22 06:02:32;;;;;;;10.20;9.30;;;;;;;20.45;80.60;98427.59;5052919;28;20209;-70
2022/07/22 06:05:00;;;;;;;11.13;10.13;;;;;;;20.39;79.33;98419.78;5052815;28;20215;-69
2022/07/22 06:07:27;;;;;;;11.03;9.50;;;;;;;20.46;78.63;98417.59;5052783;28;20225;-70
2022/07/22 06:09:54;;;;;;;11.03;10.07;;;;;;;20.53;78.86;98424.31;5052932;28;20227;-70
2022/07/22 06:12:20;;;;;;;10.87;9.90;;;;;;;21.00;76.13;98429.34;5052710;28;20672;-70
2022/07/22 06:14:47;;;;;;;11.97;10.90;;;;;;;20.21;78.39;98433.84;5052795;28;20683;-70
2022/07/22 06:17:13;;;;;;;11.47;10.30;;;;;;;20.22;80.14;98424.66;5052626;28;20301;-70
2022/07/22 06:19:40;;;;;;;10.37;9.57;;;;;;;20.41;78.10;98431.09;5052429;28;20731;-70
2022/07/22 06:22:07;;;;;;;11.50;10.50;;;;;;;20.33;80.49;98424.38;5052487;28;20288;-69
2022/07/22 06:24:33;;;;;;;10.93;9.77;;;;;;;20.62;77.88;98424.59;5052188;28;20209;-69
2022/07/22 06:27:00;;;;;;;11.87;10.73;;;;;;;20.68;78.43;98427.00;5052257;28;20228;-69
2022/07/22 06:29:26;;;;;;;13.47;10.50;;;;;;;21.01;75.41;98423.66;5052412;28;20231;-70
2022/07/22 06:31:52;;;;;;;11.13;10.10;;;;;;;21.06;76.02;98425.53;5056313;28;20236;-70
2022/07/22 06:34:19;;;;;;;11.00;10.10;;;;;;;21.14;74.47;98417.66;5056842;28;20209;-70
2022/07/22 06:36:45;;;;;;;10.47;9.47;;;;;;;20.55;76.45;98424.88;5056424;28;20300;-69
2022/07/22 06:39:12;;;;;;;11.87;9.97;;;;;;;20.87;76.59;98425.31;5056857;28;20221;-69
2022/07/22 06:41:38;;;;;;;10.10;9.20;;;;;;;20.85;75.05;98413.94;5056768;28;20209;-70
2022/07/22 06:44:05;;;;;;;9.87;8.83;;;;;;;21.07;74.10;98429.88;5056540;28;20707;-69
2022/07/22 06:46:31;;;;;;;10.00;9.00;;;;;;;21.27;73.51;98427.88;5056239;28;20201;-69
2022/07/22 06:48:57;;;;;;;10.07;9.07;;;;;;;21.38;73.60;98417.81;5055677;28;20722;-70
2022/07/22 06:51:24;;;;;;;10.27;9.20;;;;;;;21.21;72.96;98425.47;5056695;28;20304;-70
2022/07/22 06:53:50;;;;;;;10.10;8.67;;;;;;;21.30;72.97;98421.09;5056481;28;20295;-70
2022/07/22 06:56:17;;;;;;;10.33;9.23;;;;;;;21.25;74.49;98421.91;5056302;28;20688;-70
2022/07/22 06:58:43;;;;;;;10.37;9.37;;;;;;;21.51;73.57;98417.19;5054618;28;20233;-70
2022/07/22 07:01:09;;;;;;;10.70;9.77;;;;;;;21.68;72.02;98425.72;5056574;28;20201;-69
2022/07/22 07:03:36;;;;;;;9.17;8.43;;;;;;;21.82;71.55;98418.63;5056248;28;20555;-69
2022/07/22 07:06:03;;;;;;;9.70;8.90;;;;;;;21.65;72.68;98415.47;5056026;28;20690;-69
2022/07/22 07:08:29;;;;;;;10.80;9.70;;;;;;;21.74;70.57;98413.81;5055865;28;20573;-69
2022/07/22 07:10:56;;;;;;;9.77;8.97;;;;;;;21.66;72.29;98419.81;5055472;28;20292;-69
2022/07/22 07:13:22;;;;;;;10.53;9.53;;;;;;;21.54;71.77;98409.34;5055599;28;20227;-69
2022/07/22 07:15:48;;;;;;;10.77;9.03;;;;;;;21.49;72.40;98411.25;5056119;28;20287;-69
2022/07/22 07:18:15;;;;;;;11.27;10.00;;;;;;;21.65;72.63;98407.34;5056200;28;20209;-70
2022/07/22 07:20:41;;;;;;;9.90;8.80;;;;;;;21.80;71.29;98402.66;5055932;28;20211;-70
2022/07/22 07:23:08;;;;;;;9.50;8.60;;;;;;;21.89;70.67;98400.19;5055798;28;20209;-69
2022/07/22 07:25:34;;;;;;;8.93;8.03;;;;;;;22.00;69.71;98393.56;5055609;28;20663;-69
2022/07/22 07:28:00;;;;;;;9.53;8.60;;;;;;;22.08;70.81;98387.56;5055288;28;20327;-69
2022/07/22 07:30:27;;;;;;;9.80;8.77;;;;;;;22.36;69.98;98389.44;5055869;28;20235;-69
2022/07/22 07:32:54;;;;;;;9.40;8.50;;;;;;;22.31;68.19;98389.50;5055976;28;20205;-69
2022/07/22 07:35:20;;;;;;;9.33;8.30;;;;;;;22.35;68.56;98385.94;5055909;28;20295;-70
2022/07/22 07:37:47;;;;;;;10.33;9.20;;;;;;;22.13;68.55;98388.31;5055652;28;20223;-69
2022/07/22 07:40:13;;;;;;;10.30;9.32;;;;;;;22.20;67.58;98388.78;5055512;28;20730;-69
2022/07/22 07:42:40;;;;;;;9.10;8.30;;;;;;;22.30;68.61;98385.97;5054923;28;20292;-69
2022/07/22 07:45:06;;;;;;;10.43;9.35;;;;;;;22.31;67.94;98382.19;5056409;28;20235;-69
2022/07/22 07:47:33;;;;;;;11.68;10.10;;;;;;;22.29;67.16;98383.56;5055561;28;20312;-69
2022/07/22 07:50:02;;;;;;;10.35;8.95;;;;;;;22.41;68.35;98383.97;5055193;28;20232;-69
2022/07/22 07:52:28;;;;;;;9.98;9.18;;;;;;;22.45;67.94;98383.16;5055295;28;20214;-69
2022/07/22 07:54:56;;;;;;;10.45;9.55;;;;;;;22.62;66.73;98375.41;5055192;28;20209;-70
2022/07/22 07:57:23;;;;;;;11.27;10.00;;;;;;;22.67;67.65;98377.22;5054892;28;20205;-69
2022/07/22 07:59:49;;;;;;;10.40;9.43;;;;;;;22.63;67.29;98365.34;5055107;28;20275;-70
2022/07/22 08:02:16;;;;;;;10.88;9.85;;;;;;;22.62;67.01;98374.56;5055694;28;20216;-70
2022/07/22 08:04:42;;;;;;;11.32;10.30;;;;;;;22.39;66.02;98365.28;5055418;28;20205;-70
2022/07/22 08:07:08;;;;;;;11.05;10.05;;;;;;;22.56;67.00;98376.53;5055339;28;20292;-70
2022/07/22 08:09:37;;;;;;;12.77;9.50;;;;;;;22.68;66.79;98374.22;5055200;28;20236;-70
2022/07/22 08:12:04;;;;;;;10.43;9.33;;;;;;;22.67;66.54;98378.03;5055174;28;20231;-70
2022/07/22 08:14:31;;;;;;;10.23;9.23;;;;;;;22.97;65.85;98372.22;5055063;28;20201;-70
2022/07/22 08:16:57;;;;;;;9.73;8.93;;;;;;;23.09;64.08;98377.25;5054669;28;20567;-70
2022/07/22 08:19:24;;;;;;;9.15;8.45;;;;;;;23.30;65.41;98374.00;5054735;28;20585;-70
2022/07/22 08:21:50;;;;;;;9.60;8.70;;;;;;;23.72;62.87;98367.66;5055388;28;20300;-70
2022/07/22 08:24:17;;;;;;;10.32;9.18;;;;;;;23.73;62.59;98369.25;5055414;28;20212;-70
2022/07/22 08:26:43;;;;;;;9.50;8.63;;;;;;;23.41;62.93;98364.59;5055000;28;20284;-70
2022/07/22 08:29:10;;;;;;;9.05;8.35;;;;;;;23.63;62.68;98364.00;5054890;28;20237;-70
2022/07/22 08:31:37;;;;;;;10.27;8.85;;;;;;;23.66;62.45;98364.22;5054833;28;20244;-70
2022/07/22 08:34:05;;;;;;;9.50;8.60;;;;;;;23.48;62.99;98366.97;5054956;28;20292;-70
2022/07/22 08:36:31;;;;;;;9.63;8.63;;;;;;;23.70;62.85;98362.53;5054651;28;20296;-70
2022/07/22 08:38:58;;;;;;;10.05;8.55;;;;;;;23.76;61.64;98352.41;5054424;28;20304;-70
2022/07/22 08:41:25;;;;;;;8.85;7.78;;;;;;;24.11;61.01;98346.41;5054170;28;20617;-70
2022/07/22 08:43:52;;;;;;;9.57;8.57;;;;;;;24.30;59.53;98355.28;5054372;28;20205;-70
2022/07/22 08:46:19;;;;;;;8.40;7.60;;;;;;;24.44;58.86;98340.63;5054179;28;20300;-70
2022/07/22 08:48:46;;;;;;;8.82;7.90;;;;;;;24.45;58.09;98349.56;5054264;28;20237;-70
2022/07/22 08:51:12;;;;;;;8.07;7.38;;;;;;;24.37;58.33;98344.84;5054517;28;20307;-70
2022/07/22 08:53:39;;;;;;;9.20;7.75;;;;;;;24.10;59.60;98342.09;5053381;28;20291;-70
2022/07/22 08:56:06;;;;;;;8.07;7.05;;;;;;;24.42;59.49;98344.75;5054249;28;20315;-70
2022/07/22 08:58:32;;;;;;;9.35;8.43;;;;;;;24.13;59.48;98336.84;5053794;28;20633;-70
2022/07/22 09:01:16;;;;;;;7.97;7.25;;;;;;;24.56;59.34;98340.13;5054331;28;20197;-70
2022/07/22 09:03:51;;;;;;;8.25;7.28;;;;;;;24.45;58.52;98330.53;5054202;28;20318;-70
2022/07/22 09:06:19;;;;;;;8.88;7.70;;;;;;;24.50;58.44;98330.44;5053973;28;20280;-70
2022/07/22 09:09:06;;;;;;;8.65;7.75;;;;;;;24.89;57.32;98326.13;5053779;28;20348;-70
2022/07/22 09:11:33;;;;;;;8.40;7.60;;;;;;;25.07;57.89;98336.09;5053983;28;20201;-70
2022/07/22 09:14:00;;;;;;;8.88;7.97;;;;;;;25.15;57.43;98329.09;5053676;28;20707;-70
2022/07/22 09:16:40;;;;;;;8.63;7.47;;;;;;;25.39;56.83;98327.75;5053895;28;20209;-70
2022/07/22 09:19:07;;;;;;;10.43;8.60;;;;;;;25.00;56.49;98330.25;5053733;28;20251;-70
2022/07/22 09:21:37;;;;;;;8.55;6.88;;;;;;;25.05;57.79;98326.63;5053384;28;20296;-70
2022/07/22 09:24:05;;;;;;;7.60;7.00;;;;;;;25.38;57.15;98328.84;5053509;28;20196;-70
2022/07/22 09:26:37;;;;;;;8.65;7.30;;;;;;;25.63;55.60;98332.91;5053771;28;20296;-70
2022/07/22 09:29:05;;;;;;;8.70;7.82;;;;;;;25.65;54.88;98336.91;5053538;28;20229;-70
2022/07/22 09:31:34;;;;;;;8.15;7.32;;;;;;;25.46;56.02;98324.63;5053492;28;20292;-70
2022/07/22 09:34:02;;;;;;;8.35;7.60;;;;;;;25.76;54.31;98330.13;5053256;28;20300;-70
2022/07/22 09:36:29;;;;;;;8.23;7.53;;;;;;;25.58;54.56;98327.56;5052957;28;20694;-70
2022/07/22 09:38:55;;;;;;;8.63;7.82;;;;;;;25.54;54.87;98315.69;5052923;28;20395;-70
2022/07/22 09:41:22;;;;;;;8.02;7.32;;;;;;;25.97;53.02;98320.34;5052577;28;20553;-70
2022/07/22 09:43:49;;;;;;;7.00;6.40;;;;;;;26.20;51.54;98312.94;5053085;28;20205;-70
2022/07/22 09:46:16;;;;;;;7.97;6.70;;;;;;;26.21;52.20;98311.81;5053187;28;20209;-70
2022/07/22 09:48:43;;;;;;;7.38;6.70;;;;;;;26.42;53.10;98312.88;5052976;28;20785;-70
2022/07/22 09:51:10;;;;;;;7.80;7.15;;;;;;;26.57;52.39;98318.75;5053237;28;20296;-70
2022/07/22 09:53:36;;;;;;;8.25;7.55;;;;;;;26.22;51.77;98307.97;5052856;28;20628;-70
2022/07/22 09:56:06;;;;;;;7.57;6.78;;;;;;;26.16;52.85;98304.59;5053046;28;20296;-70
2022/07/22 09:58:32;;;;;;;7.45;6.70;;;;;;;26.53;52.18;98297.84;5052561;28;20312;-70
2022/07/22 10:01:04;;;;;;;7.70;7.03;;;;;;;26.71;50.54;98300.34;5053272;28;20281;-70
2022/07/22 10:03:32;;;;;;;7.82;7.13;;;;;;;26.96;49.07;98301.53;5052656;28;20585;-70
2022/07/22 10:06:00;;;;;;;6.90;6.20;;;;;;;26.48;49.98;98296.06;5052324;28;20233;-70
2022/07/22 10:08:28;;;;;;;7.65;7.05;;;;;;;26.15;50.72;98286.63;5052760;28;20233;-70
2022/07/22 10:10:59;;;;;;;9.15;6.43;;;;;;;26.26;51.31;98287.97;5052654;28;20669;-70
2022/07/22 10:13:26;;;;;;;8.05;6.40;;;;;;;26.96;49.78;98285.16;5052846;28;20288;-71
2022/07/22 10:15:54;;;;;;;8.40;6.25;;;;;;;27.36;48.67;98275.75;5052616;28;20209;-70
2022/07/22 10:18:21;;;;;;;7.45;6.50;;;;;;;27.26;48.36;98281.50;5052526;28;20690;-70
2022/07/22 10:20:47;;;;;;;8.43;6.80;;;;;;;26.86;48.86;98267.16;5052783;28;20211;-70
2022/07/22 10:23:15;;;;;;;7.53;6.63;;;;;;;26.94;50.99;98262.81;5052489;28;20300;-70
2022/07/22 10:25:56;;;;;;;7.05;6.50;;;;;;;27.43;48.94;98267.84;5052730;28;20209;-70
2022/07/22 10:28:31;;;;;;;7.35;6.70;;;;;;;27.28;49.21;98251.97;5052483;28;20213;-70
2022/07/22 10:31:21;;;;;;;8.32;6.60;;;;;;;27.68;49.85;98255.28;5052379;28;20574;-70
2022/07/22 10:33:58;;;;;;;7.47;6.88;;;;;;;27.58;48.81;98252.91;5052498;28;20185;-70
2022/07/22 10:36:42;;;;;;;7.53;6.90;;;;;;;27.89;48.49;98256.25;5052522;28;20241;-70
2022/07/22 10:39:14;;;;;;;7.85;6.78;;;;;;;28.04;49.08;98251.06;5052480;28;20217;-70
2022/07/22 10:41:44;;;;;;;7.18;6.63;;;;;;;28.24;48.08;98239.38;5053013;28;20192;-70
2022/07/22 10:44:12;;;;;;;7.18;6.50;;;;;;;28.25;48.01;98235.50;5052040;28;20276;-70
2022/07/22 10:46:49;;;;;;;7.43;6.72;;;;;;;27.91;47.43;98241.13;5052405;28;20284;-70
2022/07/22 10:49:17;;;;;;;7.15;6.43;;;;;;;28.12;46.92;98228.31;5051568;28;20244;-70
2022/07/22 10:52:33;;;;;;;7.47;6.78;;;;;;;28.18;47.88;98229.78;5051718;28;20288;-70
2022/07/22 10:55:20;;;;;;;7.32;6.68;;;;;;;28.30;46.21;98220.88;4990795;28;20686;-70
2022/07/22 10:57:48;;;;;;;7.38;6.72;;;;;;;28.48;46.48;98227.88;4990336;28;20218;-71
2022/07/22 11:00:15;;;;;;;6.90;6.22;;;;;;;28.21;45.86;98229.09;5033047;28;20307;-71
2022/07/22 11:02:41;;;;;;;6.93;6.03;;;;;;;28.30;46.47;98221.66;5052576;28;20376;-70
2022/07/22 11:05:09;;;;;;;6.65;6.15;;;;;;;28.43;45.51;98231.59;5052655;28;20298;-71
2022/07/22 11:07:42;;;;;;;7.05;6.45;;;;;;;28.59;45.38;98220.88;5052085;28;20258;-71
2022/07/22 11:10:10;;;;;;;6.55;5.95;;;;;;;28.42;45.58;98227.25;5052400;28;20316;-70
2022/07/22 11:12:37;;;;;;;8.98;6.63;;;;;;;27.72;46.40;98216.06;5052164;28;20209;-71
2022/07/22 11:15:06;;;;;;;6.85;6.18;;;;;;;27.92;46.27;98207.19;5052099;28;20236;-71
2022/07/22 11:17:34;;;;;;;7.28;6.68;;;;;;;27.98;46.46;98208.59;5053624;28;20216;-71
2022/07/22 11:20:01;;;;;;;6.80;6.20;;;;;;;28.26;45.54;98204.28;5055676;28;20699;-71
2022/07/22 11:22:28;;;;;;;7.03;6.30;;;;;;;28.33;46.38;98204.59;5056116;28;20209;-71
2022/07/22 11:24:54;;;;;;;6.32;5.88;;;;;;;28.60;45.72;98203.31;5055638;28;20747;-71
2022/07/22 11:27:21;;;;;;;6.97;6.38;;;;;;;28.69;45.05;98204.88;5055936;28;20207;-71
2022/07/22 11:29:50;;;;;;;6.63;6.03;;;;;;;28.75;43.52;98203.56;5055526;28;20577;-71
2022/07/22 11:32:17;;;;;;;7.22;6.63;;;;;;;28.75;44.86;98200.03;5056177;28;20200;-71